ETNS

Schleswig Airport

Germany
METAR ETNS 152120Z AUTO 19004KT 3600 // ////// 18/16 Q1017 ///
Observed Flight Rules
Aug-15 @ 21:20 UTC (an hour ago)
Wind Visibility
190° at 4 knots 3,605 meters
Temperatures Readings
Current 18°C / 64°F
Dewpoint 16°C / 61°F
Humidity 88%
Altimeter 30.03" Hg
Pressure 1017 hPa
Elevation 25
METAR ETNS 152120Z AUTO 19004KT 3600 // ////// 18/16 Q1017 ///
Observed Flight Rules
Aug-15 @ 21:20 UTC
(an hour ago)
Wind Visibility
190° at 4 knots 3,605 meters
Temperature Dewpoint
18°C / 64°F 16°C / 61°F
Humidity Altimeter Pressure
88% 30.03" Hg 1017 hPa